Time;durP1;ratioP1;P1;durP2;ratioP2;P2;SDS_P1;SDS_P2;PMS_P1;PMS_P2;Temp;Humidity;BMP_temperature;BMP_pressure;BME280_temperature;BME280_humidity;BME280_pressure;Samples;Min_cycle;Max_cycle;Signal;HPM_P1;HPM_P2
2023/05/24 00:01:03;;;;;;;17.52;3.40;;;12.70;99.90;;;;;;4998196;28;20026;-74
2023/05/24 00:03:29;;;;;;;9.38;3.00;;;12.70;99.90;;;;;;4999175;28;20018;-74
2023/05/24 00:05:55;;;;;;;11.25;2.80;;;12.70;99.90;;;;;;4997972;28;20113;-74
2023/05/24 00:08:21;;;;;;;9.50;2.95;;;12.70;99.90;;;;;;4998049;28;20121;-74
2023/05/24 00:10:47;;;;;;;13.27;3.20;;;12.60;99.90;;;;;;4998023;28;20053;-74
2023/05/24 00:13:14;;;;;;;12.93;3.10;;;12.60;99.90;;;;;;4998023;28;20026;-74
2023/05/24 00:15:39;;;;;;;10.95;3.00;;;12.60;99.90;;;;;;4997856;28;20022;-74
2023/05/24 00:18:05;;;;;;;6.80;3.08;;;12.60;99.90;;;;;;4998262;28;20081;-74
2023/05/24 00:20:30;;;;;;;7.60;2.92;;;12.50;99.90;;;;;;4997695;28;20093;-74
2023/05/24 00:22:57;;;;;;;13.40;4.18;;;12.50;99.90;;;;;;4998362;28;20038;-72
2023/05/24 00:25:23;;;;;;;9.98;2.60;;;12.50;99.90;;;;;;4997974;28;20049;-72
2023/05/24 00:27:49;;;;;;;10.00;3.00;;;12.50;99.90;;;;;;4997955;28;20101;-72
2023/05/24 00:30:14;;;;;;;19.88;3.40;;;12.40;99.90;;;;;;4997806;28;20022;-72
2023/05/24 00:32:40;;;;;;;16.40;2.70;;;12.40;99.90;;;;;;4997526;28;20026;-72
2023/05/24 00:35:06;;;;;;;8.35;3.22;;;12.40;99.90;;;;;;4998405;28;20026;-72
2023/05/24 00:37:31;;;;;;;10.05;2.83;;;12.50;99.90;;;;;;4998424;28;20030;-72
2023/05/24 00:39:57;;;;;;;8.40;2.58;;;12.50;99.90;;;;;;4997881;28;20030;-72
2023/05/24 00:42:23;;;;;;;6.47;2.55;;;12.50;99.90;;;;;;4997644;28;20018;-72
2023/05/24 00:44:48;;;;;;;7.47;2.50;;;12.60;99.90;;;;;;4997876;28;20109;-72
2023/05/24 00:47:15;;;;;;;11.82;2.70;;;12.60;99.90;;;;;;4998056;28;20090;-72
2023/05/24 00:49:41;;;;;;;7.57;3.10;;;12.50;99.90;;;;;;4998442;28;20030;-72
2023/05/24 00:52:07;;;;;;;8.77;2.60;;;12.40;99.90;;;;;;4997683;28;20026;-72
2023/05/24 00:54:33;;;;;;;9.20;3.05;;;12.40;99.90;;;;;;4997221;28;20022;-72
2023/05/24 00:57:00;;;;;;;7.90;2.92;;;12.40;99.90;;;;;;4997308;28;20033;-72
2023/05/24 00:59:26;;;;;;;14.93;3.28;;;12.40;99.90;;;;;;4998256;28;20026;-72
2023/05/24 01:01:54;;;;;;;15.68;3.15;;;12.30;99.90;;;;;;4997009;28;20034;-72
2023/05/24 01:04:19;;;;;;;6.82;2.40;;;12.20;99.90;;;;;;4997114;28;20032;-72
2023/05/24 01:07:00;;;;;;;16.30;3.33;;;12.20;99.90;;;;;;4996923;28;20019;-72
2023/05/24 01:10:03;;;;;;;9.40;2.47;;;12.20;99.90;;;;;;4996990;28;20026;-72
2023/05/24 01:12:40;;;;;;;8.15;3.47;;;12.20;99.90;;;;;;4996928;28;20032;-72
2023/05/24 01:15:18;;;;;;;11.45;3.05;;;12.10;99.90;;;;;;4998210;28;20022;-72
2023/05/24 01:18:06;;;;;;;7.15;2.33;;;12.10;99.90;;;;;;4997778;28;20023;-72
2023/05/24 01:20:33;;;;;;;10.35;2.92;;;12.20;99.90;;;;;;4997502;28;20117;-72
2023/05/24 01:23:26;;;;;;;8.88;2.33;;;12.10;99.90;;;;;;4997898;28;20022;-72
2023/05/24 01:26:13;;;;;;;7.07;2.53;;;12.00;99.90;;;;;;4997794;28;20113;-72
2023/05/24 01:28:42;;;;;;;11.10;2.88;;;12.00;99.90;;;;;;4996913;28;20055;-72
2023/05/24 01:31:08;;;;;;;14.70;3.83;;;11.90;99.90;;;;;;4996565;28;20030;-72
2023/05/24 01:33:33;;;;;;;12.32;2.40;;;11.90;99.90;;;;;;4997735;28;20026;-72
2023/05/24 01:35:59;;;;;;;10.15;2.20;;;11.90;99.90;;;;;;4996781;28;20038;-72
2023/05/24 01:38:24;;;;;;;8.57;2.60;;;11.80;99.90;;;;;;4999049;28;20026;-72
2023/05/24 01:41:00;;;;;;;11.00;2.63;;;11.70;99.90;;;;;;5000712;28;20041;-72
2023/05/24 01:43:42;;;;;;;9.77;2.75;;;11.60;99.90;;;;;;5001098;28;20031;-72
2023/05/24 01:46:38;;;;;;;14.73;3.92;;;11.60;99.90;;;;;;5001261;28;20019;-72
2023/05/24 01:49:33;;;;;;;18.85;3.50;;;11.70;99.90;;;;;;5000947;28;20098;-72
2023/05/24 01:52:11;;;;;;;6.75;2.15;;;11.70;99.90;;;;;;5000473;28;20113;-72
2023/05/24 01:54:41;;;;;;;10.95;2.50;;;11.70;99.90;;;;;;5000676;28;20046;-72
2023/05/24 01:57:09;;;;;;;12.00;2.83;;;11.70;99.90;;;;;;5000479;28;20022;-72
2023/05/24 01:59:35;;;;;;;8.98;2.60;;;11.60;99.90;;;;;;5000753;28;20023;-72
2023/05/24 02:02:01;;;;;;;12.40;3.80;;;11.60;99.90;;;;;;5001352;28;20076;-72
2023/05/24 02:04:27;;;;;;;10.25;2.42;;;11.40;99.90;;;;;;5000692;28;20027;-71
2023/05/24 02:06:52;;;;;;;8.18;2.50;;;11.40;99.90;;;;;;5000266;28;20027;-72
2023/05/24 02:09:18;;;;;;;14.07;5.40;;;11.40;99.90;;;;;;5000294;28;20026;-72
2023/05/24 02:11:44;;;;;;;10.88;2.42;;;11.40;99.90;;;;;;5000171;28;20125;-72
2023/05/24 02:14:10;;;;;;;7.20;2.30;;;11.40;99.90;;;;;;5000393;28;20030;-72
2023/05/24 02:16:41;;;;;;;7.13;2.45;;;11.40;99.90;;;;;;4999988;28;20029;-71
2023/05/24 02:19:09;;;;;;;7.35;2.28;;;11.30;99.90;;;;;;5000155;28;20026;-72
2023/05/24 02:21:35;;;;;;;7.40;2.15;;;11.30;99.90;;;;;;5000273;28;20040;-71
2023/05/24 02:24:01;;;;;;;16.50;3.85;;;11.30;99.90;;;;;;5000823;28;20026;-72
2023/05/24 02:26:26;;;;;;;10.23;2.83;;;11.20;99.90;;;;;;5000183;28;20029;-72
2023/05/24 02:28:52;;;;;;;9.65;2.83;;;11.30;99.90;;;;;;5000018;28;20023;-71
2023/05/24 02:31:17;;;;;;;6.20;2.90;;;11.20;99.90;;;;;;4999875;28;20046;-72
2023/05/24 02:33:43;;;;;;;10.70;3.35;;;11.20;99.90;;;;;;5000656;28;20054;-72
2023/05/24 02:36:09;;;;;;;10.68;3.15;;;11.20;99.90;;;;;;4999776;28;20156;-72
2023/05/24 02:38:35;;;;;;;11.95;2.90;;;11.10;99.90;;;;;;5000527;28;20018;-72
2023/05/24 02:41:01;;;;;;;12.10;2.90;;;11.10;99.90;;;;;;4999403;28;20034;-72
2023/05/24 02:43:27;;;;;;;7.47;2.70;;;11.20;99.90;;;;;;4999582;28;20026;-71
2023/05/24 02:45:52;;;;;;;9.40;2.50;;;10.90;99.90;;;;;;4999360;28;20026;-72
2023/05/24 02:48:18;;;;;;;7.45;3.17;;;10.80;99.90;;;;;;4999986;28;20109;-72
2023/05/24 02:50:43;;;;;;;7.95;2.38;;;10.80;99.90;;;;;;4998555;28;20033;-72
2023/05/24 02:53:09;;;;;;;6.63;2.60;;;10.70;99.90;;;;;;4999398;28;20034;-72
2023/05/24 02:55:34;;;;;;;12.90;2.75;;;10.70;99.90;;;;;;4999630;28;20026;-72
2023/05/24 02:58:00;;;;;;;18.17;2.47;;;10.70;99.90;;;;;;4999351;28;20108;-72
2023/05/24 03:00:25;;;;;;;9.82;2.40;;;10.70;99.90;;;;;;4999023;28;20027;-71
2023/05/24 03:02:51;;;;;;;9.45;3.42;;;10.60;99.90;;;;;;4999168;28;20077;-72
2023/05/24 03:05:17;;;;;;;9.57;2.95;;;10.40;99.90;;;;;;4999555;28;20022;-72
2023/05/24 03:07:42;;;;;;;10.10;2.20;;;10.20;99.90;;;;;;4999078;28;20027;-72
2023/05/24 03:10:08;;;;;;;13.30;2.92;;;10.30;99.90;;;;;;4999996;28;20027;-72
2023/05/24 03:12:34;;;;;;;12.32;2.92;;;10.30;99.90;;;;;;4999135;28;20057;-72
2023/05/24 03:14:59;;;;;;;10.02;2.63;;;10.30;99.90;;;;;;4999165;28;20027;-72
2023/05/24 03:17:25;;;;;;;7.00;2.90;;;10.20;99.90;;;;;;4999105;28;20031;-72
2023/05/24 03:19:51;;;;;;;10.95;3.03;;;10.00;99.90;;;;;;4998857;28;20030;-72
2023/05/24 03:22:17;;;;;;;11.50;3.08;;;10.10;99.90;;;;;;5000183;28;20044;-72
2023/05/24 03:24:45;;;;;;;9.35;2.45;;;10.10;99.90;;;;;;4999128;28;20026;-72
2023/05/24 03:27:10;;;;;;;5.57;2.80;;;10.20;99.90;;;;;;4999739;28;20042;-71
2023/05/24 03:29:36;;;;;;;9.48;2.97;;;10.30;99.90;;;;;;4998657;28;20064;-72
2023/05/24 03:32:01;;;;;;;7.45;2.80;;;10.30;99.90;;;;;;4998835;28;20117;-72
2023/05/24 03:34:27;;;;;;;7.90;2.50;;;10.20;99.90;;;;;;4998753;28;20018;-72
2023/05/24 03:36:52;;;;;;;7.43;2.88;;;10.30;99.90;;;;;;4998519;28;20034;-72
2023/05/24 03:39:18;;;;;;;9.98;2.83;;;10.30;99.90;;;;;;4998540;28;20095;-72
2023/05/24 03:41:43;;;;;;;10.05;2.65;;;10.30;99.90;;;;;;4998485;28;20046;-72
2023/05/24 03:44:09;;;;;;;13.32;2.75;;;10.30;99.90;;;;;;4998571;28;20117;-72
2023/05/24 03:46:34;;;;;;;13.13;3.15;;;10.40;99.90;;;;;;4999263;28;20072;-72
2023/05/24 03:49:00;;;;;;;9.88;2.70;;;10.60;99.90;;;;;;4999241;28;20034;-72
2023/05/24 03:51:28;;;;;;;11.88;2.90;;;10.60;99.90;;;;;;4998564;28;20077;-72
2023/05/24 03:53:58;;;;;;;12.07;2.40;;;10.60;99.90;;;;;;4998246;28;20049;-72
2023/05/24 03:56:25;;;;;;;10.70;2.30;;;10.50;99.90;;;;;;4998162;28;20117;-72
2023/05/24 03:58:51;;;;;;;7.72;2.60;;;10.60;99.90;;;;;;4999325;28;20022;-72
2023/05/24 04:01:17;;;;;;;8.23;2.08;;;10.70;99.90;;;;;;4998918;28;20042;-72
2023/05/24 04:03:44;;;;;;;10.30;2.45;;;10.70;99.90;;;;;;4998341;28;20019;-72
2023/05/24 04:06:10;;;;;;;11.75;3.00;;;10.70;99.90;;;;;;4999573;28;20030;-72
2023/05/24 04:08:36;;;;;;;10.20;2.38;;;10.70;99.90;;;;;;4998269;28;20023;-72
2023/05/24 04:11:02;;;;;;;11.68;2.10;;;10.70;99.90;;;;;;4998221;28;20126;-72
2023/05/24 04:13:27;;;;;;;11.23;2.60;;;10.70;99.90;;;;;;4998180;28;20065;-72
2023/05/24 04:15:53;;;;;;;14.57;3.50;;;10.70;99.90;;;;;;4998114;28;20030;-72
2023/05/24 04:18:18;;;;;;;12.70;3.65;;;10.70;99.90;;;;;;4997961;28;20038;-72
2023/05/24 04:20:44;;;;;;;15.13;2.85;;;10.70;99.90;;;;;;4997549;28;20027;-72
2023/05/24 04:23:09;;;;;;;14.35;2.15;;;10.80;99.90;;;;;;4998466;28;20113;-71
2023/05/24 04:25:35;;;;;;;12.25;3.08;;;10.80;99.90;;;;;;4998004;28;20080;-72
2023/05/24 04:28:02;;;;;;;11.23;2.42;;;10.80;99.90;;;;;;4997628;28;20029;-72
2023/05/24 04:30:29;;;;;;;10.45;2.30;;;10.80;99.90;;;;;;4997561;28;20022;-72
2023/05/24 04:32:55;;;;;;;9.38;2.40;;;10.80;99.90;;;;;;4998470;28;20080;-72
2023/05/24 04:35:21;;;;;;;10.48;2.92;;;10.70;99.90;;;;;;4997528;28;20026;-72
2023/05/24 04:37:48;;;;;;;20.88;3.17;;;10.70;99.90;;;;;;4997914;28;20033;-72
2023/05/24 04:40:15;;;;;;;10.68;2.70;;;10.80;99.90;;;;;;4997451;28;20026;-72
2023/05/24 04:42:40;;;;;;;11.95;3.05;;;10.70;99.90;;;;;;4997674;28;20026;-72
2023/05/24 04:45:07;;;;;;;10.82;2.30;;;10.60;99.90;;;;;;4997521;28;20028;-72
2023/05/24 04:47:32;;;;;;;13.70;4.97;;;10.50;99.90;;;;;;4998284;28;20126;-72
2023/05/24 04:49:58;;;;;;;9.48;2.45;;;10.50;99.90;;;;;;4998224;28;20054;-72
2023/05/24 04:52:23;;;;;;;8.02;2.33;;;10.60;99.90;;;;;;4997926;28;20109;-72
2023/05/24 04:54:50;;;;;;;14.63;2.35;;;10.40;99.90;;;;;;4997375;28;20034;-71
2023/05/24 04:57:16;;;;;;;9.88;2.33;;;10.50;99.90;;;;;;4997159;28;20033;-72
2023/05/24 04:59:41;;;;;;;6.60;2.03;;;10.60;99.90;;;;;;4997789;28;20033;-72
2023/05/24 05:02:07;;;;;;;10.30;2.38;;;10.70;99.90;;;;;;4997311;28;20018;-72
2023/05/24 05:04:32;;;;;;;9.45;2.00;;;10.70;99.90;;;;;;4996950;28;20078;-72
2023/05/24 05:06:58;;;;;;;11.43;1.88;;;10.80;99.90;;;;;;4997168;28;20030;-71
2023/05/24 05:09:24;;;;;;;16.15;2.70;;;10.80;99.90;;;;;;4997257;28;20030;-72
2023/05/24 05:11:49;;;;;;;10.88;2.53;;;10.80;99.90;;;;;;4996709;28;20034;-72
2023/05/24 05:14:15;;;;;;;12.52;2.25;;;10.80;99.90;;;;;;4997506;28;20094;-72
2023/05/24 05:16:41;;;;;;;8.20;2.55;;;10.90;99.90;;;;;;4997805;28;20022;-71
2023/05/24 05:19:06;;;;;;;12.48;2.47;;;10.90;99.90;;;;;;4996718;28;20026;-72
2023/05/24 05:21:33;;;;;;;8.77;1.90;;;10.90;99.90;;;;;;4996850;28;20038;-72
2023/05/24 05:23:59;;;;;;;10.82;2.45;;;10.70;99.90;;;;;;4996763;28;20040;-72
2023/05/24 05:26:29;;;;;;;11.75;2.58;;;10.60;99.90;;;;;;4997639;28;20018;-72
2023/05/24 05:28:56;;;;;;;11.25;2.15;;;10.80;99.90;;;;;;4996968;28;20023;-72
2023/05/24 05:31:22;;;;;;;11.48;2.28;;;10.80;99.90;;;;;;4997523;28;20033;-72
2023/05/24 05:33:48;;;;;;;9.13;2.10;;;10.80;99.90;;;;;;4996673;28;20023;-72
2023/05/24 05:36:14;;;;;;;6.18;2.40;;;10.80;99.90;;;;;;4998093;28;20054;-72
2023/05/24 05:38:39;;;;;;;7.75;2.38;;;10.60;99.90;;;;;;4996737;28;20033;-71
2023/05/24 05:41:06;;;;;;;11.38;2.35;;;10.80;99.90;;;;;;4996550;28;20121;-72
2023/05/24 05:43:31;;;;;;;15.90;2.58;;;10.90;99.90;;;;;;4996665;28;20113;-72
2023/05/24 05:45:57;;;;;;;8.00;2.20;;;10.90;99.90;;;;;;4995402;28;20069;-72
2023/05/24 05:48:22;;;;;;;14.55;3.65;;;11.00;99.90;;;;;;4996552;28;20025;-72
2023/05/24 05:50:48;;;;;;;12.18;2.60;;;11.00;99.90;;;;;;4996199;28;20031;-72
2023/05/24 05:53:15;;;;;;;7.28;2.63;;;11.10;99.90;;;;;;4997496;28;20065;-72
2023/05/24 05:55:40;;;;;;;12.30;2.70;;;11.20;99.90;;;;;;4997454;28;20032;-72
2023/05/24 05:58:06;;;;;;;17.75;2.88;;;11.30;99.90;;;;;;4996473;28;20030;-72
2023/05/24 06:00:31;;;;;;;14.40;2.88;;;11.30;99.90;;;;;;4996176;28;20037;-72
2023/05/24 06:02:57;;;;;;;12.95;1.90;;;11.40;99.90;;;;;;4996427;28;20058;-72
2023/05/24 06:05:22;;;;;;;11.73;2.13;;;11.40;99.90;;;;;;4997380;28;20022;-72
2023/05/24 06:07:48;;;;;;;18.88;3.35;;;11.50;99.90;;;;;;4997723;28;20022;-72
2023/05/24 06:10:14;;;;;;;9.10;2.03;;;11.50;99.90;;;;;;4997529;28;20113;-72
2023/05/24 06:12:39;;;;;;;11.07;2.17;;;11.30;99.90;;;;;;4996277;28;20042;-72
2023/05/24 06:15:06;;;;;;;8.25;1.98;;;11.50;99.90;;;;;;4997234;28;20042;-72
2023/05/24 06:17:33;;;;;;;11.77;3.42;;;11.70;99.90;;;;;;4996727;28;20030;-72
2023/05/24 06:19:59;;;;;;;12.18;2.03;;;11.70;99.90;;;;;;4996597;28;20027;-72
2023/05/24 06:22:26;;;;;;;7.78;1.77;;;11.80;99.90;;;;;;4996581;28;20143;-75
2023/05/24 06:24:52;;;;;;;12.50;2.08;;;11.90;99.90;;;;;;4998896;28;20084;-74
2023/05/24 06:27:18;;;;;;;13.68;2.25;;;11.60;99.90;;;;;;5000901;28;20030;-74
2023/05/24 06:29:43;;;;;;;12.60;2.58;;;11.60;99.90;;;;;;4999940;28;20023;-74
2023/05/24 06:32:09;;;;;;;12.13;2.83;;;11.60;99.90;;;;;;4999698;28;20058;-75
2023/05/24 06:34:34;;;;;;;13.93;2.35;;;11.80;99.90;;;;;;4999815;28;20018;-74
2023/05/24 06:37:01;;;;;;;22.92;2.53;;;11.90;99.90;;;;;;5001044;28;20061;-75
2023/05/24 06:39:26;;;;;;;10.18;2.10;;;12.00;99.90;;;;;;4999517;28;20026;-74
2023/05/24 06:41:52;;;;;;;11.63;2.47;;;11.80;99.90;;;;;;4999617;28;20045;-75
2023/05/24 06:44:18;;;;;;;11.95;2.35;;;11.90;99.90;;;;;;5000370;28;20025;-74
2023/05/24 06:46:44;;;;;;;14.50;2.55;;;11.80;99.90;;;;;;4999683;28;20026;-74
2023/05/24 06:49:10;;;;;;;10.07;3.33;;;11.50;99.90;;;;;;5000546;28;20022;-75
2023/05/24 06:51:37;;;;;;;7.47;2.05;;;11.30;99.90;;;;;;4999430;28;20023;-75
2023/05/24 06:54:02;;;;;;;9.68;2.95;;;11.30;99.90;;;;;;5000347;28;20049;-75
2023/05/24 06:56:28;;;;;;;13.30;2.95;;;11.40;99.90;;;;;;4999888;28;20053;-74
2023/05/24 06:58:54;;;;;;;11.15;2.45;;;11.40;99.90;;;;;;4999696;28;20014;-74
2023/05/24 07:01:21;;;;;;;11.73;2.85;;;11.40;99.90;;;;;;4999321;28;20034;-76
2023/05/24 07:03:46;;;;;;;12.57;2.50;;;11.40;99.90;;;;;;4999431;28;20023;-74
2023/05/24 07:06:13;;;;;;;10.38;2.28;;;11.30;99.90;;;;;;4999297;28;20084;-74
2023/05/24 07:08:40;;;;;;;11.35;2.40;;;11.50;99.90;;;;;;5000232;28;20026;-75
2023/05/24 07:11:06;;;;;;;17.65;3.10;;;11.70;99.90;;;;;;4999993;28;20105;-74
2023/05/24 07:13:32;;;;;;;17.05;2.90;;;11.80;99.90;;;;;;4999120;28;20113;-75
2023/05/24 07:15:57;;;;;;;14.60;3.90;;;11.80;99.90;;;;;;4998966;28;20022;-75
2023/05/24 07:18:23;;;;;;;14.82;3.47;;;11.90;99.90;;;;;;4998903;28;20113;-76
2023/05/24 07:20:49;;;;;;;11.68;2.92;;;11.90;99.90;;;;;;4999622;28;20030;-76
2023/05/24 07:23:14;;;;;;;10.88;2.45;;;12.00;99.90;;;;;;4999036;28;20081;-76
2023/05/24 07:25:40;;;;;;;11.45;2.38;;;12.10;99.90;;;;;;4999480;28;20033;-76
2023/05/24 07:28:06;;;;;;;12.77;2.65;;;12.20;99.90;;;;;;4999959;28;20022;-76
2023/05/24 07:30:32;;;;;;;12.60;3.17;;;12.30;99.90;;;;;;4999529;28;20026;-75
2023/05/24 07:32:57;;;;;;;12.13;2.03;;;12.30;99.90;;;;;;4999930;28;20057;-75
2023/05/24 07:35:23;;;;;;;15.00;2.95;;;12.40;99.90;;;;;;4999315;28;20022;-77
2023/05/24 07:37:48;;;;;;;15.20;2.65;;;12.30;99.90;;;;;;4998903;28;20042;-76
2023/05/24 07:40:14;;;;;;;18.73;3.40;;;12.20;99.90;;;;;;4998839;28;20050;-76
2023/05/24 07:42:40;;;;;;;10.07;2.80;;;12.30;99.90;;;;;;4998372;28;20023;-76
2023/05/24 07:45:07;;;;;;;10.68;2.45;;;12.40;99.90;;;;;;4998741;28;20022;-76
2023/05/24 07:47:33;;;;;;;13.00;3.00;;;12.60;99.90;;;;;;4998692;28;20033;-74
2023/05/24 07:49:59;;;;;;;12.63;2.92;;;12.60;99.90;;;;;;4998357;28;20066;-75
2023/05/24 07:52:25;;;;;;;9.48;2.95;;;12.60;99.90;;;;;;4999191;28;20022;-76
2023/05/24 07:54:51;;;;;;;13.25;2.92;;;12.30;99.90;;;;;;4998373;28;20026;-77
2023/05/24 07:57:18;;;;;;;14.32;3.38;;;11.90;99.90;;;;;;4998314;28;20033;-77
2023/05/24 07:59:44;;;;;;;12.57;3.03;;;12.00;99.90;;;;;;4998521;28;20037;-76
2023/05/24 08:02:10;;;;;;;12.57;3.10;;;12.30;99.90;;;;;;4999057;28;20098;-76
2023/05/24 08:04:36;;;;;;;23.25;4.05;;;12.50;99.90;;;;;;4999046;28;20064;-77
2023/05/24 08:07:03;;;;;;;13.18;2.85;;;12.60;99.90;;;;;;4998397;28;20026;-76
2023/05/24 08:09:32;;;;;;;13.38;2.97;;;12.70;99.90;;;;;;4998955;28;20102;-77
2023/05/24 08:11:58;;;;;;;12.98;2.65;;;13.10;99.90;;;;;;4998779;28;20044;-76
2023/05/24 08:14:23;;;;;;;19.17;3.85;;;13.00;99.90;;;;;;4997895;28;20030;-76
2023/05/24 08:16:49;;;;;;;15.77;2.38;;;12.80;99.90;;;;;;4998179;28;20030;-76
2023/05/24 08:19:14;;;;;;;13.55;3.38;;;12.90;99.90;;;;;;4998005;28;20030;-76
2023/05/24 08:21:41;;;;;;;13.68;3.15;;;12.80;99.90;;;;;;4998237;28;20022;-75
2023/05/24 08:24:07;;;;;;;12.35;3.10;;;12.90;99.90;;;;;;4998092;28;20022;-76
2023/05/24 08:26:32;;;;;;;11.98;2.53;;;13.00;99.90;;;;;;4997568;28;20027;-75
2023/05/24 08:28:58;;;;;;;8.75;2.60;;;13.00;99.90;;;;;;4997948;28;20049;-76
2023/05/24 08:31:23;;;;;;;17.77;3.45;;;13.20;99.90;;;;;;4997511;28;20029;-76
2023/05/24 08:33:49;;;;;;;11.20;2.90;;;13.20;99.90;;;;;;4998770;28;20101;-76
2023/05/24 08:36:16;;;;;;;15.48;3.70;;;13.30;99.90;;;;;;4998594;28;20121;-77
2023/05/24 08:38:42;;;;;;;6.80;2.88;;;13.50;99.90;;;;;;4997905;28;20113;-77
2023/05/24 08:41:10;;;;;;;15.55;3.15;;;13.50;99.90;;;;;;4997315;28;20097;-75
2023/05/24 08:43:37;;;;;;;10.32;3.38;;;13.40;99.90;;;;;;4998465;28;20061;-76
2023/05/24 08:46:04;;;;;;;10.15;2.70;;;13.50;99.90;;;;;;4997385;28;20033;-76
2023/05/24 08:48:30;;;;;;;11.93;3.40;;;13.70;99.90;;;;;;4996527;28;20029;-76
2023/05/24 08:50:57;;;;;;;10.63;2.92;;;13.50;99.90;;;;;;4997091;28;20030;-75
2023/05/24 08:53:23;;;;;;;13.68;2.90;;;13.50;99.90;;;;;;4997301;28;20039;-75
2023/05/24 08:55:52;;;;;;;13.05;3.03;;;13.40;99.90;;;;;;4997216;28;20115;-76
2023/05/24 08:58:18;;;;;;;16.25;2.97;;;13.40;99.90;;;;;;4997479;28;20023;-76
2023/05/24 09:00:43;;;;;;;11.82;3.25;;;13.30;99.90;;;;;;4997211;28;20026;-76
2023/05/24 09:03:10;;;;;;;14.80;3.42;;;13.30;99.90;;;;;;4997237;28;20074;-75
2023/05/24 09:05:36;;;;;;;15.50;3.35;;;13.30;99.90;;;;;;4998020;28;20049;-76
2023/05/24 09:08:02;;;;;;;12.45;3.42;;;13.60;99.90;;;;;;4997262;28;20027;-75
2023/05/24 09:10:31;;;;;;;18.35;4.40;;;13.90;99.90;;;;;;4997832;28;20030;-76
2023/05/24 09:13:00;;;;;;;12.10;2.85;;;14.20;99.90;;;;;;4996978;28;20026;-76
2023/05/24 09:15:26;;;;;;;18.52;2.58;;;14.50;99.90;;;;;;4997689;28;20113;-75
2023/05/24 09:17:51;;;;;;;12.57;2.58;;;14.40;99.90;;;;;;4997167;28;20054;-75
2023/05/24 09:20:18;;;;;;;15.73;3.28;;;14.60;99.90;;;;;;4997599;28;20061;-75
2023/05/24 09:22:50;;;;;;;15.00;3.63;;;14.80;99.90;;;;;;4996888;28;20058;-75
2023/05/24 09:25:19;;;;;;;16.65;3.20;;;14.60;99.90;;;;;;4996906;28;20027;-75
2023/05/24 09:27:50;;;;;;;15.30;3.50;;;14.80;99.90;;;;;;4998145;28;20165;-75
2023/05/24 09:30:15;;;;;;;11.95;3.33;;;14.70;99.90;;;;;;4997263;28;20027;-75
2023/05/24 09:32:59;;;;;;;13.10;2.83;;;14.50;99.90;;;;;;4997042;28;20032;-75
2023/05/24 09:35:26;;;;;;;8.38;2.58;;;14.40;99.90;;;;;;4997825;28;20046;-75
2023/05/24 09:37:58;;;;;;;14.85;3.20;;;14.50;99.90;;;;;;4996907;28;20026;-75
2023/05/24 09:40:24;;;;;;;;;;;14.50;99.90;;;;;;4998018;28;20029;-75
2023/05/24 09:43:06;;;;;;;14.20;3.10;;;14.50;99.90;;;;;;4997662;28;19989;-75
2023/05/24 09:45:32;;;;;;;10.75;2.70;;;14.60;99.90;;;;;;4998001;28;20027;-76
2023/05/24 09:47:58;;;;;;;8.48;2.70;;;15.20;99.90;;;;;;4998528;28;20077;-75
2023/05/24 09:50:25;;;;;;;9.93;2.83;;;15.10;99.90;;;;;;4999388;28;20026;-76
2023/05/24 09:52:53;;;;;;;13.85;3.17;;;15.00;99.90;;;;;;4997706;28;20026;-76
2023/05/24 09:55:19;;;;;;;13.40;2.83;;;15.00;99.90;;;;;;4997930;28;20023;-77
2023/05/24 09:57:51;;;;;;;9.30;2.88;;;14.90;99.90;;;;;;4996518;28;20065;-76
2023/05/24 10:00:22;;;;;;;9.57;2.90;;;14.70;99.90;;;;;;5001134;28;20025;-76
2023/05/24 10:03:03;;;;;;;12.70;3.25;;;14.70;99.90;;;;;;5000551;28;20045;-76
2023/05/24 10:05:29;;;;;;;8.33;2.83;;;14.80;99.90;;;;;;5001707;28;20030;-75
2023/05/24 10:07:57;;;;;;;9.60;3.05;;;14.50;99.90;;;;;;5000209;28;20023;-76
2023/05/24 10:10:28;;;;;;;7.45;2.70;;;14.80;99.90;;;;;;5002003;28;20026;-76
2023/05/24 10:12:55;;;;;;;9.07;2.57;;;15.00;99.90;;;;;;5000518;28;20113;-76
2023/05/24 10:15:21;;;;;;;13.95;2.85;;;15.10;99.90;;;;;;5000521;28;20269;-76
2023/05/24 10:17:47;;;;;;;11.65;3.20;;;15.00;99.90;;;;;;5000234;28;20026;-76
2023/05/24 10:20:12;;;;;;;11.50;3.42;;;15.10;99.90;;;;;;5000335;28;20031;-75
2023/05/24 10:22:46;;;;;;;14.43;3.08;;;15.10;99.90;;;;;;4999950;28;20099;-76
2023/05/24 10:25:25;;;;;;;14.73;3.00;;;15.30;99.90;;;;;;5001096;28;20034;-76
2023/05/24 10:27:56;;;;;;;7.25;2.30;;;15.40;99.90;;;;;;5000027;28;20114;-75
2023/05/24 10:30:33;;;;;;;10.85;2.70;;;15.20;99.90;;;;;;4999985;28;20062;-75
2023/05/24 10:33:00;;;;;;;8.43;2.95;;;15.50;99.90;;;;;;4999867;28;20098;-75
2023/05/24 10:35:27;;;;;;;8.57;2.63;;;15.60;99.90;;;;;;4999960;28;20022;-75
2023/05/24 10:37:53;;;;;;;11.27;2.58;;;15.70;99.90;;;;;;5000984;28;20027;-75
2023/05/24 10:40:21;;;;;;;6.78;2.45;;;15.70;99.90;;;;;;5000618;28;20029;-75
2023/05/24 10:42:47;;;;;;;11.25;2.95;;;15.50;99.90;;;;;;4999605;28;20022;-76
2023/05/24 10:45:21;;;;;;;12.23;3.10;;;15.50;99.90;;;;;;4999984;28;20194;-75
2023/05/24 10:47:47;;;;;;;8.52;2.92;;;15.80;99.90;;;;;;4999546;28;20054;-75
2023/05/24 10:50:21;;;;;;;10.55;3.05;;;16.00;99.90;;;;;;4999855;28;20034;-75
2023/05/24 10:52:50;;;;;;;11.50;2.83;;;16.20;99.90;;;;;;4999420;28;20058;-75
2023/05/24 10:55:18;;;;;;;12.10;3.05;;;16.20;99.90;;;;;;4999582;28;20031;-76
2023/05/24 10:57:43;;;;;;;10.75;2.42;;;16.00;99.90;;;;;;4999460;28;20037;-76
2023/05/24 11:00:24;;;;;;;10.00;2.75;;;15.90;99.90;;;;;;5000456;28;20031;-75
2023/05/24 11:02:50;;;;;;;10.35;2.80;;;16.00;99.90;;;;;;4999267;28;20109;-75
2023/05/24 11:05:17;;;;;;;21.38;3.60;;;16.00;99.90;;;;;;4999538;28;20026;-76
2023/05/24 11:07:43;;;;;;;8.90;2.55;;;15.90;99.90;;;;;;4999537;28;20027;-75
2023/05/24 11:10:15;;;;;;;12.95;3.30;;;15.90;99.90;;;;;;4999663;28;20116;-75
2023/05/24 11:12:42;;;;;;;8.60;2.88;;;15.90;99.90;;;;;;5000109;28;20049;-75
2023/05/24 11:15:10;;;;;;;15.85;3.47;;;15.90;99.90;;;;;;4999235;28;20026;-75
2023/05/24 11:18:13;;;;;;;13.13;3.30;;;15.90;99.90;;;;;;4999894;28;20041;-75
2023/05/24 11:20:41;;;;;;;9.18;2.58;;;16.10;99.90;;;;;;4998901;28;20022;-75
2023/05/24 11:23:09;;;;;;;14.07;3.72;;;16.40;99.90;;;;;;5000100;28;20027;-75
2023/05/24 11:25:38;;;;;;;18.58;3.72;;;16.80;99.90;;;;;;4999153;28;20054;-75
2023/05/24 11:28:10;;;;;;;14.23;3.70;;;16.80;99.90;;;;;;4999708;28;20022;-75
2023/05/24 11:30:39;;;;;;;9.38;2.88;;;16.30;99.90;;;;;;4999726;28;20026;-75
2023/05/24 11:33:13;;;;;;;14.50;3.22;;;16.40;99.90;;;;;;4999691;28;20081;-75
2023/05/24 11:35:38;;;;;;;13.82;3.78;;;16.40;99.90;;;;;;4999884;28;20113;-75
2023/05/24 11:38:12;;;;;;;16.48;3.17;;;16.40;99.90;;;;;;4999169;28;20089;-75
2023/05/24 11:40:45;;;;;;;11.25;3.35;;;16.40;99.90;;;;;;4998468;28;20026;-75
2023/05/24 11:43:16;;;;;;;15.30;3.65;;;16.70;99.90;;;;;;4998666;28;20026;-75
2023/05/24 11:45:44;;;;;;;13.95;2.92;;;17.00;99.90;;;;;;4998476;28;20022;-75
2023/05/24 11:48:11;;;;;;;11.23;2.97;;;17.20;99.90;;;;;;4999365;28;20089;-75
2023/05/24 11:50:42;;;;;;;9.65;2.72;;;17.60;99.90;;;;;;4998285;28;20026;-75
2023/05/24 11:53:11;;;;;;;14.93;3.40;;;17.80;99.90;;;;;;4999108;28;20023;-75
2023/05/24 11:55:41;;;;;;;7.78;2.72;;;17.50;99.90;;;;;;4999189;28;20026;-76
2023/05/24 11:58:15;;;;;;;9.13;2.75;;;17.40;99.90;;;;;;4998214;28;20121;-76
2023/05/24 12:00:45;;;;;;;8.23;2.70;;;17.40;99.90;;;;;;4998127;28;20105;-76
2023/05/24 12:03:11;;;;;;;7.32;2.88;;;17.60;99.90;;;;;;4998935;28;20072;-76
2023/05/24 12:05:37;;;;;;;10.70;2.65;;;17.70;99.90;;;;;;4998999;28;20018;-75
2023/05/24 12:08:08;;;;;;;8.85;2.65;;;18.20;99.90;;;;;;4999034;28;20026;-76
2023/05/24 12:10:38;;;;;;;9.32;2.50;;;18.10;99.90;;;;;;4998258;28;20034;-75
2023/05/24 12:13:04;;;;;;;8.48;2.75;;;18.10;99.90;;;;;;4998348;28;20034;-76
2023/05/24 12:15:30;;;;;;;8.27;2.58;;;17.90;99.90;;;;;;4997981;28;20106;-75
2023/05/24 12:17:57;;;;;;;10.60;2.70;;;17.50;99.90;;;;;;4997982;28;20046;-75
2023/05/24 12:20:23;;;;;;;11.93;2.95;;;17.40;99.90;;;;;;4998655;28;20026;-75
2023/05/24 12:22:52;;;;;;;11.77;2.35;;;17.10;99.90;;;;;;4998224;28;20102;-73
2023/05/24 12:25:20;;;;;;;10.40;2.58;;;16.80;99.90;;;;;;4997883;28;20022;-73
2023/05/24 12:27:47;;;;;;;8.15;2.05;;;16.90;99.90;;;;;;4997590;28;20018;-73
2023/05/24 12:30:19;;;;;;;14.25;2.75;;;16.80;99.90;;;;;;4997716;28;20026;-72
2023/05/24 12:32:46;;;;;;;8.45;2.45;;;17.10;99.90;;;;;;4997696;28;20030;-73
2023/05/24 12:35:12;;;;;;;12.40;2.53;;;17.40;99.90;;;;;;4997514;28;20029;-72
2023/05/24 12:37:38;;;;;;;7.53;2.42;;;17.50;99.50;;;;;;4997844;28;20026;-72
2023/05/24 12:40:14;;;;;;;10.45;2.20;;;17.50;99.00;;;;;;4998615;28;20110;-73
2023/05/24 12:42:40;;;;;;;10.20;2.72;;;17.80;99.90;;;;;;4997755;28;20026;-73